Flight Track Log - Related Links

Times and Time Zones

All times are in EDT time to prevent confusion due to time zone crossing. See the EJA929 flight status page for this flight to view local times or setup timezone preferences in your user account.

Time Position Orientation Groundspeed Altitude Reporting Facility
EDT Latitude Longitude Course Direction KTS MPH feet Rate Location/Type
Sun 11:01:04 AM 33.3000 -111.6500 138° Southeast 141 162 1,700  Level Phoenix TRACON
Sun 11:01:54 AM 33.2811 -111.6300 138° Southeast 194 223 3,600 2,464 Climbing Albuquerque Center
Sun 11:02:56 AM 33.2700 -111.5494 99° East 254 292 6,300 2,323 Climbing Albuquerque Center
Sun 11:03:58 AM 33.3483 -111.5264 14° North 295 339 8,400 2,129 Climbing Albuquerque Center
Sun 11:05:00 AM 33.4275 -111.5578 342° North 308 354 10,700 1,742 Climbing Albuquerque Center
Sun 11:06:02 AM 33.5150 -111.6117 333° Northwest 349 402 12,000 1,463 Climbing Albuquerque Center
Sun 11:07:03 AM 33.6103 -111.6678 334° Northwest 377 434 13,700 1,756 Climbing Albuquerque Center
Sun 11:08:05 AM 33.7175 -111.6858 352° North 390 449 15,600 1,839 Climbing Albuquerque Center
Sun 11:09:07 AM 33.8478 -111.7022 354° North 395 455 17,500 1,645 Climbing Albuquerque Center
Sun 11:10:09 AM 33.9647 -111.7175 354° North 406 467 19,000 1,355 Climbing Albuquerque Center
Sun 11:11:11 AM 34.0792 -111.7286 355° North 415 478 20,300 1,306 Climbing Albuquerque Center
Sun 11:12:13 AM 34.2072 -111.7072 North 432 497 21,700 1,403 Climbing Albuquerque Center
Sun 11:13:15 AM 34.3256 -111.6569 19° North 442 509 23,200 1,317 Climbing Albuquerque Center
Sun 11:14:16 AM 34.4444 -111.6086 19° North 448 516 24,400 1,268 Climbing Albuquerque Center
Sun 11:15:18 AM 34.5667 -111.5589 19° North 458 527 25,800 1,258 Climbing Albuquerque Center
Sun 11:16:20 AM 34.6917 -111.5075 19° North 469 540 27,000 1,161 Climbing Albuquerque Center
Sun 11:17:22 AM 34.8183 -111.4558 19° North 477 549 28,200 1,065 Climbing Albuquerque Center
Sun 11:18:24 AM 34.9472 -111.4011 19° North 486 559 29,200 1,016 Climbing Albuquerque Center
Sun 11:19:26 AM 35.0792 -111.3483 18° North 496 571 30,300 871 Climbing Albuquerque Center
Sun 11:20:28 AM 35.2425 -111.2806 19° North 511 588 31,000 339 Climbing Albuquerque Center
Sun 11:21:30 AM 35.3878 -111.2186 19° North 531 611 31,000  Level Albuquerque Center
Sun 11:22:32 AM 35.5231 -111.1622 19° North 534 615 31,000  Level Albuquerque Center
Sun 11:23:34 AM 35.6831 -111.0958 19° North 538 619 31,000  Level Albuquerque Center
Sun 11:24:36 AM 35.8208 -111.0383 19° North 542 624 31,000  Level Albuquerque Center
Sun 11:25:38 AM 35.9806 -110.9706 19° North 542 624 31,000  Level Albuquerque Center
Sun 11:26:40 AM 36.1167 -110.9125 19° North 540 621 31,000  Level Albuquerque Center
Sun 11:27:52 AM 36.2947 -110.8372 19° North 539 620 31,000  Level Denver Center
Sun 11:29:06 AM 36.4669 -110.7647 19° North 545 627 31,000  Level Denver Center
Sun 11:30:08 AM 36.6111 -110.7031 19° North 547 629 31,000  Level Denver Center
Sun 11:31:10 AM 36.7553 -110.6406 19° North 550 633 31,000  Level Denver Center
Sun 11:32:12 AM 36.8989 -110.5786 19° North 549 632 31,000  Level Denver Center
Sun 11:33:26 AM 37.0711 -110.5036 19° North 548 631 31,000  Level Denver Center
Sun 11:34:29 AM 37.2444 -110.4275 19° North 551 634 31,000  Level Denver Center
Sun 11:35:31 AM 37.3875 -110.3653 19° North 547 629 31,000  Level Denver Center
Sun 11:36:33 AM 37.5453 -110.2975 19° North 547 629 31,000  Level Denver Center
Sun 11:37:35 AM 37.6836 -110.2347 20° North 550 633 31,000 -1,113 Level Denver Center
Sun 11:38:37 AM 37.8461 -110.1644 19° North 552 635 28,700 -1,935 Descending Denver Center
Sun 11:39:39 AM 37.9836 -110.1022 20° North 547 629 27,000 -823 Descending Denver Center
Sun 11:40:41 AM 38.1264 -110.0389 19° North 534 615 27,000 -107 Level Denver Center
Sun 11:41:31 AM 38.2375 -109.9897 19° North 531 611 26,800 -2,710 Descending Denver Center
Sun 11:42:45 AM 38.3739 -109.9283 19° North 461 531 21,400 -5,647 Descending Denver Center
Sun 11:43:47 AM 38.5122 -109.8686 19° North 423 487 14,000 -5,419 Descending Denver Center
Sun 11:44:49 AM 38.6042 -109.8250 20° North 389 448 10,200 -3,677 Descending Denver Center
Sun 11:48:00 AM 38.7500 -109.7500 North  Level FlightAware Approximate
Sun 11:55:00 AM 38.7550 -109.7548 North  Level Estimated
Sun 11:56:00 AM 38.7500 -109.7500 North  Level FlightAware Approximate
Sun 11:57:00 AM 38.7550 -109.7548 North  Level Estimated

Login

Don't have an account? Register now (free) for customized features, flight alerts, and more!